Time;durP1;ratioP1;P1;durP2;ratioP2;P2;SDS_P1;SDS_P2;PMS_P1;PMS_P2;Temp;Humidity;BMP_temperature;BMP_pressure;BME280_temperature;BME280_humidity;BME280_pressure;Samples;Min_cycle;Max_cycle;Signal;HPM_P1;HPM_P2
2022/08/28 00:04:16;;;;;;;15.88;10.48;;;21.80;99.90;;;;;;10491068;28;20200;-75
2022/08/28 00:09:37;;;;;;;13.18;10.00;;;21.80;99.90;;;;;;10517251;28;20325;-76
2022/08/28 00:14:59;;;;;;;11.35;10.18;;;21.70;99.90;;;;;;10441328;28;20212;-76
2022/08/28 00:20:22;;;;;;;13.45;10.68;;;21.80;99.90;;;;;;10440836;28;20267;-76
2022/08/28 00:25:43;;;;;;;15.70;11.65;;;21.70;99.90;;;;;;10440523;28;20196;-80
2022/08/28 00:31:05;;;;;;;15.00;11.05;;;21.70;99.90;;;;;;10439572;28;20234;-78
2022/08/28 00:36:27;;;;;;;16.45;10.68;;;21.70;99.90;;;;;;10440320;28;20224;-78
2022/08/28 00:41:51;;;;;;;14.68;10.80;;;21.70;99.90;;;;;;10440022;28;20271;-78
2022/08/28 00:47:13;;;;;;;12.40;9.70;;;21.60;99.90;;;;;;10438756;28;20254;-78
2022/08/28 00:52:36;;;;;;;11.15;9.95;;;21.60;99.90;;;;;;10439392;28;20185;-79
2022/08/28 00:57:59;;;;;;;13.80;9.05;;;21.50;99.90;;;;;;10437811;28;20421;-79
2022/08/28 01:03:21;;;;;;;12.73;9.95;;;;;;;;;;10473410;28;20494;-79
2022/08/28 01:08:45;;;;;;;11.90;9.90;;;;;;;;;;10521317;28;20244;-78
2022/08/28 01:14:07;;;;;;;11.38;10.00;;;;;;;;;;10440564;28;20204;-78
2022/08/28 01:19:31;;;;;;;25.45;17.85;;;;;;;;;;10438819;28;20243;-79
2022/08/28 01:24:56;;;;;;;18.38;14.65;;;;;;;;;;10438030;28;20292;-78
2022/08/28 01:30:18;;;;;;;16.55;11.95;;;;;;;;;;10436997;28;20266;-75
2022/08/28 01:35:42;;;;;;;16.08;11.75;;;;;;;;;;10408883;28;20298;-77
2022/08/28 01:41:04;;;;;;;15.15;11.30;;;;;;;;;;10423067;28;20212;-76
2022/08/28 01:46:25;;;;;;;17.60;11.10;;;;;;;;;;10423235;28;20399;-76
2022/08/28 01:51:48;;;;;;;15.23;10.88;;;;;;;;;;10437101;28;20220;-77
2022/08/28 01:57:10;;;;;;;14.27;11.20;;;;;;;;;;10437257;28;20247;-78
2022/08/28 02:02:32;;;;;;;11.23;9.85;;;;;;;;;;10459675;28;20486;-77
2022/08/28 02:07:56;;;;;;;14.60;10.43;;;;;;;;;;10436793;28;20192;-78
2022/08/28 02:13:17;;;;;;;14.43;10.82;;;;;;;;;;10469896;28;20206;-78
2022/08/28 02:18:39;;;;;;;14.23;10.23;;;;;;;;;;10476942;28;20560;-78
2022/08/28 02:24:00;;;;;;;12.02;10.07;;;;;;;;;;10477733;28;20231;-77
2022/08/28 02:29:22;;;;;;;13.32;10.27;;;;;;;;;;10475508;28;20226;-78
2022/08/28 02:34:44;;;;;;;11.38;10.10;;;;;;;;;;10421399;28;20495;-78
2022/08/28 02:40:09;;;;;;;14.05;9.80;;;;;;;;;;10435779;28;20425;-77
2022/08/28 02:45:31;;;;;;;10.63;9.52;;;;;;;;;;10436458;28;20207;-77
2022/08/28 02:50:56;;;;;;;13.65;9.77;;;;;;;;;;10420889;28;20200;-79
2022/08/28 02:56:18;;;;;;;10.60;9.50;;;;;;;;;;10435207;28;20227;-79
2022/08/28 03:01:39;;;;;;;14.60;10.45;;;;;;;;;;10451357;28;20499;-78
2022/08/28 03:07:01;;;;;;;13.95;10.73;;;;;;;;;;10513449;28;20264;-78
2022/08/28 03:12:23;;;;;;;12.60;10.30;;;;;;;;;;10466276;28;20193;-78
2022/08/28 03:17:44;;;;;;;14.15;11.27;;;20.40;34.70;;;;;;10434623;28;20236;-78
2022/08/28 03:28:49;;;;;;;12.80;11.25;;;20.10;99.90;;;;;;10441980;28;20204;-79
2022/08/28 03:34:11;;;;;;;13.52;12.13;;;20.10;99.90;;;;;;10442814;28;20192;-80
2022/08/28 03:39:32;;;;;;;14.48;11.55;;;20.00;99.90;;;;;;10441410;28;20236;-76
2022/08/28 03:44:54;;;;;;;13.85;11.55;;;20.00;99.90;;;;;;10442405;28;20494;-77
2022/08/28 03:50:16;;;;;;;14.77;11.70;;;20.00;99.90;;;;;;10440707;28;20207;-78
2022/08/28 03:55:40;;;;;;;12.95;11.57;;;20.00;99.90;;;;;;10440906;28;20244;-78
2022/08/28 04:01:02;;;;;;;15.10;10.13;;;19.90;99.90;;;;;;10451627;28;20237;-76
2022/08/28 04:06:23;;;;;;;12.88;9.93;;;19.90;99.90;;;;;;10512833;28;20478;-77
2022/08/28 04:11:45;;;;;;;11.45;10.05;;;19.80;99.90;;;;;;10483107;28;20201;-77
2022/08/28 04:17:07;;;;;;;12.80;10.65;;;19.90;99.90;;;;;;10440837;28;20296;-76
2022/08/28 04:22:29;;;;;;;16.02;11.85;;;19.90;99.90;;;;;;10440887;28;20232;-76
2022/08/28 04:27:51;;;;;;;14.95;11.45;;;19.90;1.00;;;;;;10439459;28;20201;-77
2022/08/28 04:33:12;;;;;;;16.38;12.15;;;20.00;99.90;;;;;;10438157;28;20196;-76
2022/08/28 04:38:34;;;;;;;14.75;12.13;;;20.00;99.90;;;;;;10440313;28;20246;-76
2022/08/28 04:43:56;;;;;;;14.88;12.40;;;19.90;1.00;;;;;;10439893;28;20192;-76
2022/08/28 04:49:17;;;;;;;18.88;13.25;;;20.00;1.00;;;;;;10439819;28;20220;-76
2022/08/28 04:55:16;;;;;;;17.40;12.40;;;20.00;1.00;;;;;;10438760;28;20370;-77
2022/08/28 05:00:39;;;;;;;18.10;12.45;;;20.20;1.00;;;;;;10446130;28;20200;-76
2022/08/28 05:06:02;;;;;;;12.70;11.32;;;20.40;1.00;;;;;;10508405;28;20225;-76
2022/08/28 05:11:25;;;;;;;12.60;11.30;;;20.60;99.90;;;;;;10485307;28;20204;-76
2022/08/28 05:16:52;;;;;;;12.50;11.18;;;20.70;1.00;;;;;;10437526;28;20243;-76
2022/08/28 05:22:13;;;;;;;12.25;10.80;;;20.80;99.90;;;;;;10437301;28;20240;-76
2022/08/28 05:27:53;;;;;;;13.20;10.65;;;20.80;99.90;;;;;;10438325;28;20193;-77
2022/08/28 05:33:18;;;;;;;12.05;10.75;;;21.00;99.90;;;;;;10423662;28;20425;-76
2022/08/28 05:44:05;;;;;;;15.32;11.25;;;21.00;99.90;;;;;;10436778;28;20402;-76
2022/08/28 05:56:41;;;;;;;12.00;10.85;;;21.10;1.00;;;;;;10437192;28;20220;-76
2022/08/28 06:02:05;;;;;;;12.68;11.38;;;21.30;1.00;;;;;;10454744;28;20212;-76
2022/08/28 06:07:26;;;;;;;11.68;9.88;;;21.30;1.00;;;;;;10517264;28;20248;-76
2022/08/28 06:12:47;;;;;;;16.00;11.20;;;21.50;1.00;;;;;;10460536;28;20238;-76
2022/08/28 06:18:09;;;;;;;13.40;11.35;;;21.70;20.20;;;;;;10436198;28;20266;-76
2022/08/28 06:23:31;;;;;;;10.70;9.70;;;22.10;99.90;;;;;;10436789;28;20248;-76
2022/08/28 06:28:53;;;;;;;19.33;11.90;;;23.20;99.90;;;;;;10436400;28;20239;-76
2022/08/28 06:34:16;;;;;;;16.98;11.57;;;24.60;99.90;;;;;;10436833;28;20499;-76
2022/08/28 06:39:38;;;;;;;12.98;10.20;;;24.60;99.90;;;;;;10436378;28;20227;-76
2022/08/28 06:44:59;;;;;;;10.95;9.85;;;26.20;95.10;;;;;;10436424;28;20192;-76
2022/08/28 06:50:20;;;;;;;10.73;9.63;;;26.50;94.70;;;;;;10436356;28;20512;-76
2022/08/28 06:55:42;;;;;;;11.27;8.80;;;27.40;96.10;;;;;;10437515;28;20192;-76
2022/08/28 07:01:16;;;;;;;11.95;8.85;;;27.90;90.30;;;;;;10453591;28;20204;-76
2022/08/28 07:06:42;;;;;;;9.43;7.88;;;28.40;86.50;;;;;;10517420;28;20198;-76
2022/08/28 07:12:03;;;;;;;9.63;8.00;;;28.80;82.10;;;;;;10479144;28;20360;-77
2022/08/28 07:17:25;;;;;;;12.15;7.43;;;29.30;75.70;;;;;;10443274;28;20515;-77
2022/08/28 07:22:46;;;;;;;9.00;6.93;;;29.80;68.30;;;;;;10443058;28;20469;-77
2022/08/28 07:28:08;;;;;;;6.22;5.72;;;30.20;59.50;;;;;;10442866;28;20193;-76
2022/08/28 07:33:31;;;;;;;6.57;5.97;;;30.30;55.40;;;;;;10442821;28;20188;-76
2022/08/28 07:38:54;;;;;;;6.07;5.53;;;30.60;52.70;;;;;;10442476;28;20239;-76
2022/08/28 07:49:59;;;;;;;8.23;5.15;;;31.40;43.60;;;;;;10442365;28;20224;-76
2022/08/28 07:55:20;;;;;;;5.75;5.15;;;31.50;40.60;;;;;;10441807;28;20256;-76
2022/08/28 08:00:42;;;;;;;7.57;5.45;;;31.70;38.80;;;;;;10449288;28;20207;-76
2022/08/28 08:06:05;;;;;;;5.60;4.97;;;32.00;36.30;;;;;;10511166;28;20259;-76
2022/08/28 08:11:26;;;;;;;6.30;5.70;;;32.10;35.20;;;;;;10486756;28;20228;-76
2022/08/28 08:16:48;;;;;;;6.97;5.90;;;32.50;31.50;;;;;;10440256;28;20474;-76
2022/08/28 08:22:10;;;;;;;7.95;6.78;;;32.50;31.00;;;;;;10440708;28;20267;-79
2022/08/28 08:27:32;;;;;;;8.23;7.43;;;32.60;29.20;;;;;;10440860;28;20189;-79
2022/08/28 08:32:53;;;;;;;7.25;6.55;;;32.60;29.00;;;;;;10439631;28;20242;-79
2022/08/28 08:38:15;;;;;;;8.55;7.65;;;32.90;28.90;;;;;;10440107;28;20224;-80
2022/08/28 08:43:51;;;;;;;7.40;6.75;;;33.40;28.10;;;;;;10440245;28;20189;-79
2022/08/28 08:49:17;;;;;;;7.88;7.18;;;33.40;27.50;;;;;;10438877;28;20204;-79
2022/08/28 08:54:41;;;;;;;7.75;7.05;;;33.90;26.30;;;;;;10438583;28;20547;-79
2022/08/28 09:00:06;;;;;;;9.00;7.97;;;33.80;25.90;;;;;;10441282;28;20291;-80
2022/08/28 09:05:54;;;;;;;8.00;7.30;;;34.10;25.50;;;;;;10503494;28;20187;-79
2022/08/28 09:11:37;;;;;;;8.25;7.45;;;34.20;24.90;;;;;;10488222;28;20227;-78
2022/08/28 09:17:00;;;;;;;8.88;8.02;;;34.60;24.30;;;;;;10438008;28;20224;-79
2022/08/28 09:22:22;;;;;;;11.25;7.90;;;34.60;23.40;;;;;;10436765;28;20242;-79
2022/08/28 09:27:51;;;;;;;9.85;8.10;;;34.90;23.10;;;;;;10423743;28;20235;-79
2022/08/28 09:33:13;;;;;;;12.43;8.90;;;35.50;22.30;;;;;;10437086;28;20391;-79
2022/08/28 09:38:35;;;;;;;11.45;9.13;;;35.40;21.60;;;;;;10437711;28;20220;-80
2022/08/28 09:43:57;;;;;;;8.90;8.07;;;35.40;21.70;;;;;;10437752;28;20193;-79
2022/08/28 09:49:29;;;;;;;10.45;8.35;;;35.50;21.20;;;;;;10437427;28;20204;-79
2022/08/28 09:54:50;;;;;;;13.93;9.05;;;35.80;20.10;;;;;;10437406;28;20480;-79
2022/08/28 10:06:30;;;;;;;9.65;8.65;;;35.60;20.20;;;;;;10508282;28;20207;-79
2022/08/28 10:12:26;;;;;;;13.23;8.30;;;35.30;19.50;;;;;;10476605;28;20204;-79
2022/08/28 10:17:54;;;;;;;15.35;9.10;;;35.30;20.10;;;;;;10435810;28;20216;-78
2022/08/28 10:23:24;;;;;;;11.18;9.57;;;35.40;19.80;;;;;;10435436;28;20240;-76
2022/08/28 10:28:56;;;;;;;11.15;9.05;;;35.70;19.40;;;;;;10435613;28;20212;-78
2022/08/28 10:34:24;;;;;;;10.93;7.78;;;35.90;18.70;;;;;;10444149;28;20192;-79
2022/08/28 10:40:19;;;;;;;9.82;8.55;;;35.80;18.50;;;;;;10433744;28;20223;-78
2022/08/28 10:45:41;;;;;;;9.60;8.55;;;35.00;19.60;;;;;;10444478;28;20503;-78
2022/08/28 10:51:09;;;;;;;10.88;8.63;;;34.90;21.20;;;;;;10445591;28;20197;-78
2022/08/28 10:56:46;;;;;;;11.43;8.65;;;34.80;21.00;;;;;;10443410;28;20567;-79
2022/08/28 11:02:12;;;;;;;9.95;7.82;;;34.90;20.30;;;;;;10461924;28;20204;-79
2022/08/28 11:07:43;;;;;;;13.50;8.85;;;35.30;20.10;;;;;;10525841;28;20223;-79
2022/08/28 11:13:07;;;;;;;10.93;8.88;;;35.70;19.40;;;;;;10462382;28;20219;-78
2022/08/28 11:18:58;;;;;;;11.02;7.95;;;35.80;19.40;;;;;;10443095;28;20224;-79
2022/08/28 11:24:25;;;;;;;9.13;7.50;;;35.80;19.80;;;;;;10442849;28;20224;-80
2022/08/28 11:30:09;;;;;;;12.88;8.13;;;35.60;19.40;;;;;;10442641;28;20198;-77
2022/08/28 11:35:47;;;;;;;10.75;7.07;;;35.40;19.40;;;;;;10441845;28;20196;-78
2022/08/28 11:41:13;;;;;;;12.10;7.15;;;35.10;18.90;;;;;;10413312;28;20196;-79
2022/08/28 11:46:37;;;;;;;7.95;6.65;;;35.10;19.60;;;;;;10441308;28;20238;-78
2022/08/28 11:52:30;;;;;;;11.50;5.93;;;35.40;19.50;;;;;;10427228;28;20506;-78
2022/08/28 11:57:51;;;;;;;6.55;5.20;;;35.40;19.30;;;;;;10441802;28;20220;-79
2022/08/28 12:03:34;;;;;;;9.30;5.20;;;35.00;19.80;;;;;;10473934;28;20237;-80
2022/08/28 12:08:55;;;;;;;8.43;4.95;;;34.40;19.90;;;;;;10524373;28;20210;-77
2022/08/28 12:14:26;;;;;;;8.65;4.47;;;33.90;19.20;;;;;;10439777;28;20212;-77
2022/08/28 12:20:04;;;;;;;4.70;4.28;;;34.00;18.80;;;;;;10439748;28;20239;-76
2022/08/28 12:25:35;;;;;;;9.40;4.10;;;34.30;18.30;;;;;;10440053;28;20514;-76
2022/08/28 12:31:05;;;;;;;7.22;4.65;;;34.10;17.90;;;;;;10439548;28;20193;-77
2022/08/28 12:36:27;;;;;;;8.27;4.85;;;34.40;17.50;;;;;;10440217;28;20250;-76
2022/08/28 12:41:49;;;;;;;8.63;4.25;;;34.40;17.40;;;;;;10438972;28;20200;-77
2022/08/28 12:47:21;;;;;;;6.80;4.15;;;34.30;18.20;;;;;;10438740;28;20200;-76
2022/08/28 12:52:52;;;;;;;16.75;5.65;;;34.00;18.60;;;;;;10423334;28;20208;-76
2022/08/28 12:58:31;;;;;;;12.48;4.80;;;33.80;19.30;;;;;;10438724;28;20230;-76
2022/08/28 13:03:59;;;;;;;10.38;3.80;;;33.40;20.00;;;;;;10483005;28;20380;-76
2022/08/28 13:09:25;;;;;;;4.75;4.20;;;32.60;20.90;;;;;;10519790;28;20209;-76
2022/08/28 13:14:46;;;;;;;6.57;5.20;;;31.80;22.60;;;;;;10423803;28;20243;-76
2022/08/28 13:20:09;;;;;;;6.18;4.10;;;31.20;24.10;;;;;;10437798;28;20224;-76
2022/08/28 13:25:34;;;;;;;8.57;4.60;;;31.00;24.50;;;;;;10438687;28;20188;-76
2022/08/28 13:30:58;;;;;;;5.47;4.18;;;31.00;24.80;;;;;;10438201;28;20193;-76
2022/08/28 13:36:23;;;;;;;11.82;3.95;;;31.10;24.70;;;;;;10437811;28;20193;-76
2022/08/28 13:41:48;;;;;;;6.07;4.20;;;31.00;24.80;;;;;;10437740;28;20232;-76
2022/08/28 13:47:09;;;;;;;6.38;4.03;;;30.90;25.30;;;;;;10422562;28;20231;-76
2022/08/28 13:52:32;;;;;;;6.93;3.88;;;30.80;25.30;;;;;;10437439;28;20195;-76
2022/08/28 13:57:53;;;;;;;6.72;4.28;;;30.60;25.80;;;;;;10436001;28;20228;-76
2022/08/28 14:08:54;;;;;;;4.05;3.65;;;30.30;25.90;;;;;;10504647;28;20549;-76
2022/08/28 14:14:16;;;;;;;6.85;3.45;;;29.90;26.80;;;;;;10437383;28;20574;-76
2022/08/28 14:19:37;;;;;;;3.42;2.67;;;29.60;27.50;;;;;;10436747;28;20266;-77
2022/08/28 14:24:59;;;;;;;3.03;2.65;;;29.60;27.70;;;;;;10436697;28;20274;-76
2022/08/28 14:30:21;;;;;;;5.72;3.33;;;29.30;27.40;;;;;;10436708;28;20239;-76
2022/08/28 14:35:42;;;;;;;3.10;2.35;;;29.10;28.00;;;;;;10436846;28;20223;-76
2022/08/28 14:41:07;;;;;;;3.80;2.85;;;29.00;27.70;;;;;;10436290;28;20240;-75
2022/08/28 14:46:33;;;;;;;3.67;2.75;;;29.00;27.80;;;;;;10435498;28;20213;-76
2022/08/28 14:51:55;;;;;;;3.45;2.47;;;28.80;29.00;;;;;;10420926;28;20201;-75
2022/08/28 14:57:17;;;;;;;4.38;2.30;;;28.80;29.60;;;;;;10435733;28;20219;-75
2022/08/28 15:02:38;;;;;;;5.47;4.03;;;28.70;30.10;;;;;;10459529;28;20351;-76
2022/08/28 15:08:01;;;;;;;5.43;2.58;;;28.60;31.40;;;;;;10434866;28;20196;-75
2022/08/28 15:13:23;;;;;;;8.93;2.75;;;28.70;33.10;;;;;;10435958;28;20231;-75
2022/08/28 15:24:06;;;;;;;3.90;2.42;;;27.90;35.60;;;;;;10441821;28;20307;-75
2022/08/28 15:29:28;;;;;;;2.92;2.67;;;27.80;38.00;;;;;;10441983;28;20204;-78
2022/08/28 15:34:50;;;;;;;6.07;2.80;;;27.70;38.50;;;;;;10442990;28;20191;-77
2022/08/28 15:45:51;;;;;;;3.72;2.60;;;27.10;39.30;;;;;;10441349;28;20219;-78
2022/08/28 15:51:13;;;;;;;5.10;3.35;;;26.90;41.40;;;;;;10442439;28;20231;-77
2022/08/28 15:56:35;;;;;;;5.20;3.20;;;26.70;43.30;;;;;;10442139;28;20204;-79
2022/08/28 16:01:57;;;;;;;5.00;3.40;;;26.40;50.90;;;;;;10459593;28;20200;-78
2022/08/28 16:07:19;;;;;;;6.15;3.40;;;26.30;53.70;;;;;;10521446;28;20202;-76
2022/08/28 16:12:41;;;;;;;4.20;3.30;;;26.30;60.80;;;;;;10466899;28;20247;-78
2022/08/28 16:18:07;;;;;;;5.00;3.22;;;26.20;68.30;;;;;;10426212;28;20304;-78
2022/08/28 16:23:28;;;;;;;4.68;3.40;;;26.00;75.60;;;;;;10440739;28;20417;-78
2022/08/28 16:28:50;;;;;;;5.60;3.40;;;25.80;82.60;;;;;;10440126;28;20188;-78
2022/08/28 16:34:11;;;;;;;4.32;3.28;;;25.80;86.60;;;;;;10439626;28;20188;-78
2022/08/28 16:39:33;;;;;;;5.03;3.35;;;;;;;;;;10440371;28;20216;-79
2022/08/28 16:44:56;;;;;;;3.90;3.25;;;25.40;92.50;;;;;;10440334;28;20193;-77
2022/08/28 16:50:19;;;;;;;6.28;3.60;;;25.20;93.90;;;;;;10438811;28;20208;-78
2022/08/28 16:55:42;;;;;;;7.35;3.20;;;25.00;94.90;;;;;;10438824;28;20235;-78
2022/08/28 17:01:04;;;;;;;3.63;3.00;;;25.00;95.60;;;;;;10448657;28;20219;-78
2022/08/28 17:06:30;;;;;;;5.30;3.00;;;25.00;99.90;;;;;;10511464;28;20191;-77
2022/08/28 17:11:51;;;;;;;6.00;3.25;;;24.80;96.40;;;;;;10479246;28;20207;-79
2022/08/28 17:17:13;;;;;;;6.13;4.28;;;24.80;95.90;;;;;;10438817;28;20227;-78
2022/08/28 17:22:34;;;;;;;6.80;3.63;;;24.60;96.20;;;;;;10438419;28;20231;-78
2022/08/28 17:27:56;;;;;;;4.32;3.50;;;24.60;99.90;;;;;;10423731;28;20204;-78
2022/08/28 17:33:18;;;;;;;4.90;3.58;;;24.30;98.10;;;;;;10438272;28;20239;-78
2022/08/28 17:38:44;;;;;;;4.57;3.67;;;24.30;98.30;;;;;;10436553;28;20256;-76
2022/08/28 17:44:06;;;;;;;7.35;3.80;;;24.20;98.30;;;;;;10437807;28;20200;-78
2022/08/28 17:49:27;;;;;;;5.32;3.40;;;24.00;98.70;;;;;;10436412;28;20228;-76
2022/08/28 17:54:49;;;;;;;5.22;4.10;;;;;;;;;;10422491;28;20207;-78
2022/08/28 18:00:14;;;;;;;5.38;3.53;;;;;;;;;;10439280;28;20526;-78
2022/08/28 18:05:37;;;;;;;7.22;4.22;;;;;;;;;;10501999;28;20191;-79
2022/08/28 18:10:59;;;;;;;6.95;3.65;;;;;;;;;;10491259;28;20208;-78
2022/08/28 18:16:20;;;;;;;8.55;4.80;;;;;;;;;;10435747;28;20350;-77
2022/08/28 18:21:42;;;;;;;6.85;3.70;;;23.40;99.90;;;;;;10436573;28;20231;-78
2022/08/28 18:27:04;;;;;;;5.13;3.55;;;23.10;99.90;;;;;;10422103;28;20191;-78
2022/08/28 18:32:25;;;;;;;6.32;3.88;;;23.10;99.90;;;;;;10421893;28;20425;-78
2022/08/28 18:37:48;;;;;;;5.65;3.67;;;23.20;99.90;;;;;;10435604;28;20216;-79
2022/08/28 18:43:09;;;;;;;5.28;3.35;;;23.10;99.90;;;;;;10436487;28;20358;-79
2022/08/28 18:48:32;;;;;;;5.10;3.85;;;23.00;99.90;;;;;;10435373;28;20195;-79
2022/08/28 18:53:54;;;;;;;6.20;3.95;;;23.00;99.90;;;;;;10440317;28;20242;-79
2022/08/28 18:59:15;;;;;;;6.30;4.18;;;23.00;99.90;;;;;;10444176;28;20236;-78
2022/08/28 19:04:37;;;;;;;6.65;4.25;;;22.90;99.90;;;;;;10498974;28;20199;-78
2022/08/28 19:09:58;;;;;;;7.20;3.40;;;22.80;99.90;;;;;;10515471;28;20242;-77
2022/08/28 19:15:20;;;;;;;5.60;3.85;;;22.60;99.90;;;;;;10443826;28;20403;-78
2022/08/28 19:20:41;;;;;;;7.28;3.75;;;22.50;99.90;;;;;;10443685;28;20514;-79
2022/08/28 19:26:03;;;;;;;8.10;3.63;;;22.60;99.90;;;;;;10443550;28;20200;-79
2022/08/28 19:31:25;;;;;;;6.38;4.00;;;22.50;99.90;;;;;;10442906;28;20534;-78
2022/08/28 19:36:47;;;;;;;4.63;3.35;;;22.40;99.90;;;;;;10443023;28;20197;-76
2022/08/28 19:42:08;;;;;;;4.53;3.40;;;22.40;99.90;;;;;;10441960;28;20208;-77
2022/08/28 19:47:30;;;;;;;7.05;3.67;;;22.50;99.90;;;;;;10441132;28;20204;-79
2022/08/28 19:52:52;;;;;;;3.78;3.28;;;22.50;99.90;;;;;;10442528;28;20562;-77
2022/08/28 19:58:13;;;;;;;4.72;3.60;;;22.40;99.90;;;;;;10442042;28;20220;-77
2022/08/28 20:03:35;;;;;;;7.75;3.45;;;22.30;99.90;;;;;;10478967;28;20203;-78
2022/08/28 20:08:56;;;;;;;4.43;3.38;;;22.30;99.90;;;;;;10524433;28;20197;-76
2022/08/28 20:14:19;;;;;;;4.03;3.63;;;22.20;99.90;;;;;;10439916;28;20196;-76
2022/08/28 20:19:40;;;;;;;5.85;3.47;;;22.20;99.90;;;;;;10441164;28;20282;-77
2022/08/28 20:25:02;;;;;;;7.38;4.28;;;22.10;99.90;;;;;;10440978;28;20520;-76
2022/08/28 20:30:24;;;;;;;3.75;3.38;;;22.10;99.90;;;;;;10450668;28;20200;-75
2022/08/28 20:35:45;;;;;;;4.13;3.58;;;22.10;99.90;;;;;;10466864;28;20207;-75
2022/08/28 20:41:08;;;;;;;6.80;3.72;;;22.00;99.90;;;;;;10480637;28;20530;-75
2022/08/28 20:51:52;;;;;;;5.35;3.05;;;21.90;99.90;;;;;;10480529;28;20196;-75
2022/08/28 20:57:16;;;;;;;4.22;2.75;;;22.00;99.90;;;;;;10480994;28;20247;-75
2022/08/28 21:02:38;;;;;;;4.43;3.50;;;21.90;99.90;;;;;;10480953;28;20227;-75
2022/08/28 21:08:00;;;;;;;6.63;3.13;;;21.90;99.90;;;;;;10439662;28;20263;-75
2022/08/28 21:13:22;;;;;;;4.50;3.00;;;21.80;99.90;;;;;;10438623;28;20224;-75
2022/08/28 21:18:45;;;;;;;4.28;2.92;;;21.80;99.90;;;;;;10437891;28;20447;-76
2022/08/28 21:24:19;;;;;;;3.85;3.33;;;21.80;99.90;;;;;;10432213;28;20539;-76
2022/08/28 21:29:40;;;;;;;5.88;3.72;;;21.90;99.90;;;;;;10438684;28;20192;-76
2022/08/28 21:35:05;;;;;;;10.73;3.72;;;21.80;99.90;;;;;;10437257;28;20202;-75
2022/08/28 21:40:26;;;;;;;4.90;3.25;;;21.60;99.90;;;;;;10437915;28;20281;-75
2022/08/28 21:45:59;;;;;;;8.38;3.72;;;21.50;99.90;;;;;;10437986;28;20195;-75
2022/08/28 21:51:22;;;;;;;18.88;5.90;;;21.50;99.90;;;;;;10437928;28;20242;-75
2022/08/28 21:56:43;;;;;;;9.75;4.53;;;21.30;99.90;;;;;;10437531;28;20197;-75
2022/08/28 22:02:05;;;;;;;5.57;4.00;;;;;;;;;;10456288;28;20223;-78
2022/08/28 22:07:27;;;;;;;8.27;3.92;;;21.10;99.90;;;;;;10517308;28;20270;-77
2022/08/28 22:12:48;;;;;;;5.90;3.72;;;20.70;99.90;;;;;;10461932;28;20231;-78
2022/08/28 22:18:11;;;;;;;7.15;3.97;;;20.70;99.90;;;;;;10436986;28;20260;-79
2022/08/28 22:23:34;;;;;;;6.28;4.10;;;20.70;99.90;;;;;;10435631;28;20236;-75
2022/08/28 22:28:55;;;;;;;6.45;3.80;;;20.60;99.90;;;;;;10447480;28;20196;-78
2022/08/28 22:34:17;;;;;;;10.82;4.43;;;20.50;99.90;;;;;;10450485;28;20195;-76
2022/08/28 22:39:39;;;;;;;5.55;4.13;;;20.50;99.90;;;;;;10450169;28;20220;-78
2022/08/28 22:45:01;;;;;;;9.63;4.15;;;20.40;99.90;;;;;;10450421;28;20196;-79
2022/08/28 22:50:22;;;;;;;12.18;4.22;;;20.40;99.90;;;;;;10450414;28;20271;-75
2022/08/28 22:55:44;;;;;;;6.88;3.75;;;20.30;99.90;;;;;;10448938;28;20246;-75
2022/08/28 23:01:10;;;;;;;7.13;3.53;;;20.30;99.90;;;;;;10460703;28;20249;-75
2022/08/28 23:06:32;;;;;;;6.60;3.45;;;20.50;99.90;;;;;;10523306;28;20266;-75
2022/08/28 23:11:53;;;;;;;10.55;4.32;;;20.40;99.90;;;;;;10488885;28;20234;-75
2022/08/28 23:17:15;;;;;;;11.30;3.72;;;20.40;99.90;;;;;;10448822;28;20193;-75
2022/08/28 23:22:37;;;;;;;5.85;3.40;;;20.40;99.90;;;;;;10448550;28;20259;-75
2022/08/28 23:43:57;;;;;;;7.53;3.30;;;20.40;99.90;;;;;;10442049;28;20411;-79
2022/08/28 23:49:18;;;;;;;6.45;3.50;;;20.40;99.90;;;;;;10442481;28;20250;-78
2022/08/28 23:54:41;;;;;;;7.40;3.25;;;20.40;99.90;;;;;;10442518;28;20484;-78
